EZS34J LGAV-LFSB
Flight info
| Callsign | EZS34J |
|---|---|
| Flight time | N/A |
| Altitude | 36000 |
| Route | KOR UL53 IXONI DCT VARDI DCT DIMIS DCT VAKSU DCT SPL DCT ROTAR DCT BORMI DCT RESIA DCT ELMUR T718 RIGVI |
| Aircraft | A320/M-SDE3FGHIRWY/LB1 |
Departure
| Time | 2026-05-04 22:44 |
|---|---|
| Airport | Athens Eleftherios Venizelos International Airport (LGAV) |
Arrival
| Time | N/A |
|---|---|
| Airport | EuroAirport Basel–Mulhouse–Freiburg (LFSB) |
| Time | Latitude | Longitude | Altitude | Speed | Heading |
|---|---|---|---|---|---|
| 2026-05-04 22:22 | 37.93170 | 23.94320 | 301 ft | 0 kts | 217° |
| 2026-05-04 22:34 | 37.93173 | 23.94323 | 301 ft | 2 kts | 216° |
| 2026-05-04 22:34 | 37.93189 | 23.94337 | 304 ft | 3 kts | 210° |
| 2026-05-04 22:35 | 37.93207 | 23.94349 | 305 ft | 3 kts | 200° |
| 2026-05-04 22:35 | 37.93226 | 23.94355 | 303 ft | 3 kts | 180° |
| 2026-05-04 22:35 | 37.93243 | 23.94352 | 303 ft | 3 kts | 141° |
| 2026-05-04 22:35 | 37.93248 | 23.94346 | 305 ft | 0 kts | 127° |
| 2026-05-04 22:39 | 37.93237 | 23.94364 | 304 ft | 5 kts | 127° |
| 2026-05-04 22:39 | 37.93197 | 23.94433 | 302 ft | 15 kts | 127° |
| 2026-05-04 22:39 | 37.93120 | 23.94563 | 303 ft | 20 kts | 127° |
| 2026-05-04 22:40 | 37.93044 | 23.94673 | 302 ft | 13 kts | 159° |
| 2026-05-04 22:40 | 37.92973 | 23.94640 | 302 ft | 11 kts | 216° |
| 2026-05-04 22:40 | 37.92907 | 23.94578 | 302 ft | 13 kts | 217° |
| 2026-05-04 22:40 | 37.92829 | 23.94503 | 303 ft | 15 kts | 217° |
| 2026-05-04 22:41 | 37.92738 | 23.94417 | 302 ft | 18 kts | 216° |
| 2026-05-04 22:41 | 37.92637 | 23.94320 | 304 ft | 18 kts | 216° |
| 2026-05-04 22:41 | 37.92532 | 23.94221 | 305 ft | 19 kts | 216° |
| 2026-05-04 22:41 | 37.92442 | 23.94160 | 303 ft | 13 kts | 173° |
| 2026-05-04 22:42 | 37.92411 | 23.94234 | 305 ft | 8 kts | 87° |
| 2026-05-04 22:42 | 37.92413 | 23.94291 | 307 ft | 6 kts | 87° |
| 2026-05-04 22:42 | 37.92415 | 23.94358 | 309 ft | 10 kts | 87° |
| 2026-05-04 22:42 | 37.92440 | 23.94409 | 309 ft | 1 kts | 37° |
| 2026-05-04 22:43 | 37.92445 | 23.94414 | 309 ft | 0 kts | 37° |
| 2026-05-04 22:43 | 37.92446 | 23.94414 | 309 ft | 0 kts | 37° |
| 2026-05-04 22:43 | 37.92548 | 23.94512 | 307 ft | 54 kts | 36° |
| 2026-05-04 22:43 | 37.93038 | 23.94976 | 297 ft | 119 kts | 37° |
| 2026-05-04 22:44 | 37.93839 | 23.95737 | 282 ft | 167 kts | 37° |
| 2026-05-04 22:44 | 37.94858 | 23.96712 | 400 ft | 191 kts | 36° |
| 2026-05-04 22:44 | 37.95878 | 23.97701 | 1169 ft | 183 kts | 34° |
| 2026-05-04 22:44 | 37.96886 | 23.98669 | 1838 ft | 181 kts | 34° |
| 2026-05-04 22:45 | 37.97899 | 23.99641 | 2314 ft | 188 kts | 34° |
| 2026-05-04 22:45 | 38.00075 | 24.01728 | 3167 ft | 206 kts | 34° |
| 2026-05-04 22:45 | 38.01268 | 24.02867 | 3539 ft | 223 kts | 34° |
| 2026-05-04 22:46 | 38.02529 | 24.04075 | 4134 ft | 231 kts | 34° |
| 2026-05-04 22:46 | 38.03812 | 24.05310 | 4951 ft | 232 kts | 34° |
| 2026-05-04 22:46 | 38.05098 | 24.06550 | 5758 ft | 233 kts | 34° |
| 2026-05-04 22:46 | 38.06394 | 24.07799 | 6553 ft | 235 kts | 34° |
| 2026-05-04 22:47 | 38.07700 | 24.09057 | 7277 ft | 237 kts | 34° |
| 2026-05-04 22:47 | 38.08865 | 24.10623 | 7787 ft | 256 kts | 57° |
| 2026-05-04 22:47 | 38.09397 | 24.12843 | 8337 ft | 274 kts | 83° |
| 2026-05-04 22:47 | 38.09075 | 24.15275 | 9006 ft | 289 kts | 110° |
| 2026-05-04 22:48 | 38.07866 | 24.17338 | 9702 ft | 300 kts | 140° |
| 2026-05-04 22:48 | 38.05975 | 24.18500 | 9965 ft | 307 kts | 172° |
| 2026-05-04 22:48 | 38.03884 | 24.18257 | 10435 ft | 304 kts | 204° |
| 2026-05-04 22:48 | 38.02157 | 24.16797 | 11094 ft | 297 kts | 233° |
| 2026-05-04 22:49 | 38.01149 | 24.14542 | 11619 ft | 297 kts | 258° |
| 2026-05-04 22:49 | 38.00935 | 24.11997 | 12309 ft | 288 kts | 279° |
| 2026-05-04 22:49 | 38.01438 | 24.09575 | 13003 ft | 285 kts | 295° |
| 2026-05-04 22:49 | 38.02184 | 24.07230 | 13630 ft | 288 kts | 295° |
| 2026-05-04 22:50 | 38.02953 | 24.04831 | 14247 ft | 291 kts | 295° |
| 2026-05-04 22:50 | 38.03722 | 24.02431 | 14552 ft | 305 kts | 295° |
| 2026-05-04 22:50 | 38.04553 | 23.99841 | 14761 ft | 321 kts | 295° |
| 2026-05-04 22:50 | 38.05413 | 23.97149 | 14945 ft | 337 kts | 295° |
| 2026-05-04 22:51 | 38.06312 | 23.94327 | 15117 ft | 352 kts | 294° |
| 2026-05-04 22:51 | 38.07237 | 23.91409 | 15524 ft | 359 kts | 294° |
| 2026-05-04 22:51 | 38.08168 | 23.88451 | 16092 ft | 362 kts | 294° |
| 2026-05-04 22:51 | 38.08847 | 23.86515 | 16466 ft | 362 kts | 302° |
| 2026-05-04 22:52 | 38.10315 | 23.83934 | 17023 ft | 362 kts | 310° |
| 2026-05-04 22:52 | 38.11908 | 23.81438 | 17546 ft | 365 kts | 311° |
| 2026-05-04 22:52 | 38.13516 | 23.78924 | 18074 ft | 368 kts | 311° |
| 2026-05-04 22:52 | 38.15138 | 23.76385 | 18579 ft | 371 kts | 310° |
| 2026-05-04 22:53 | 38.16773 | 23.73823 | 19033 ft | 374 kts | 310° |
| 2026-05-04 22:53 | 38.18417 | 23.71242 | 19528 ft | 376 kts | 311° |
| 2026-05-04 22:53 | 38.20066 | 23.68649 | 20035 ft | 378 kts | 310° |
| 2026-05-04 22:53 | 38.21718 | 23.66040 | 20535 ft | 380 kts | 310° |
| 2026-05-04 22:54 | 38.23379 | 23.63412 | 21014 ft | 382 kts | 310° |
| 2026-05-04 22:54 | 38.25052 | 23.60770 | 21461 ft | 384 kts | 311° |
| 2026-05-04 22:54 | 38.26732 | 23.58119 | 21911 ft | 386 kts | 311° |
| 2026-05-04 22:54 | 38.28424 | 23.55447 | 22364 ft | 388 kts | 311° |
| 2026-05-04 22:55 | 38.30119 | 23.52766 | 22777 ft | 390 kts | 311° |
| 2026-05-04 22:55 | 38.31826 | 23.50063 | 23203 ft | 392 kts | 311° |
| 2026-05-04 22:55 | 38.33561 | 23.47317 | 23602 ft | 394 kts | 311° |
| 2026-05-04 22:55 | 38.35287 | 23.44587 | 23961 ft | 396 kts | 311° |
| 2026-05-04 22:56 | 38.37016 | 23.41845 | 24303 ft | 397 kts | 311° |
| 2026-05-04 22:56 | 38.38746 | 23.39095 | 24620 ft | 398 kts | 311° |
| 2026-05-04 22:56 | 38.40479 | 23.36338 | 24925 ft | 400 kts | 311° |
| 2026-05-04 22:56 | 38.42220 | 23.33566 | 25269 ft | 400 kts | 311° |
| 2026-05-04 22:57 | 38.43960 | 23.30795 | 25586 ft | 401 kts | 311° |
| 2026-05-04 22:57 | 38.45707 | 23.28012 | 25900 ft | 402 kts | 311° |
| 2026-05-04 22:57 | 38.47457 | 23.25227 | 26210 ft | 403 kts | 311° |
| 2026-05-04 22:57 | 38.48684 | 23.23271 | 26443 ft | 403 kts | 311° |
| 2026-05-04 22:58 | 38.50440 | 23.20469 | 26755 ft | 404 kts | 311° |
| 2026-05-04 22:58 | 38.52191 | 23.17671 | 27036 ft | 405 kts | 312° |
| 2026-05-04 22:58 | 38.53953 | 23.14851 | 27298 ft | 406 kts | 311° |
| 2026-05-04 22:58 | 38.55715 | 23.12024 | 27593 ft | 407 kts | 312° |
| 2026-05-04 22:59 | 38.56741 | 23.10377 | 27751 ft | 407 kts | 312° |
| 2026-05-04 22:59 | 38.57634 | 23.08945 | 27901 ft | 407 kts | 312° |
| 2026-05-04 22:59 | 38.59397 | 23.06115 | 28148 ft | 408 kts | 312° |
| 2026-05-04 22:59 | 38.61168 | 23.03272 | 28413 ft | 409 kts | 312° |
| 2026-05-04 23:00 | 38.62937 | 23.00427 | 28678 ft | 409 kts | 312° |
| 2026-05-04 23:00 | 38.64710 | 22.97573 | 28905 ft | 410 kts | 313° |
| 2026-05-04 23:00 | 38.66489 | 22.94709 | 29128 ft | 411 kts | 313° |
| 2026-05-04 23:00 | 38.68266 | 22.91848 | 29356 ft | 411 kts | 313° |
| 2026-05-04 23:01 | 38.70046 | 22.88975 | 29587 ft | 411 kts | 313° |
| 2026-05-04 23:01 | 38.71812 | 22.86117 | 29880 ft | 409 kts | 313° |
| 2026-05-04 23:01 | 38.73573 | 22.83265 | 30179 ft | 407 kts | 313° |
| 2026-05-04 23:01 | 38.75325 | 22.80431 | 30458 ft | 405 kts | 313° |
| 2026-05-04 23:02 | 38.76159 | 22.79083 | 30585 ft | 404 kts | 313° |
| 2026-05-04 23:02 | 38.77716 | 22.76564 | 30824 ft | 403 kts | 313° |
| 2026-05-04 23:02 | 38.79451 | 22.73756 | 31070 ft | 402 kts | 313° |
| 2026-05-04 23:02 | 38.81183 | 22.70947 | 31298 ft | 401 kts | 313° |
| 2026-05-04 23:03 | 38.82929 | 22.68114 | 31540 ft | 399 kts | 313° |
| 2026-05-04 23:03 | 38.84626 | 22.65355 | 31760 ft | 398 kts | 313° |
| 2026-05-04 23:03 | 38.86363 | 22.62524 | 31974 ft | 398 kts | 313° |
| 2026-05-04 23:03 | 38.88071 | 22.59741 | 32177 ft | 397 kts | 313° |
| 2026-05-04 23:04 | 38.89782 | 22.56955 | 32376 ft | 397 kts | 313° |
| 2026-05-04 23:04 | 38.91486 | 22.54177 | 32581 ft | 396 kts | 313° |
| 2026-05-04 23:04 | 38.93188 | 22.51395 | 32765 ft | 395 kts | 313° |
| 2026-05-04 23:04 | 38.94888 | 22.48615 | 32922 ft | 395 kts | 313° |
| 2026-05-04 23:05 | 38.96586 | 22.45840 | 33097 ft | 395 kts | 313° |
| 2026-05-04 23:05 | 38.98289 | 22.43061 | 33275 ft | 395 kts | 313° |
| 2026-05-04 23:05 | 38.99984 | 22.40292 | 33450 ft | 395 kts | 313° |
| 2026-05-04 23:05 | 39.01685 | 22.37512 | 33623 ft | 395 kts | 313° |
| 2026-05-04 23:06 | 39.03379 | 22.34735 | 33820 ft | 395 kts | 313° |
| 2026-05-04 23:06 | 39.05074 | 22.31951 | 34021 ft | 395 kts | 313° |
| 2026-05-04 23:06 | 39.06767 | 22.29168 | 34201 ft | 394 kts | 313° |
| 2026-05-04 23:06 | 39.08456 | 22.26386 | 34339 ft | 395 kts | 313° |
| 2026-05-04 23:07 | 39.10145 | 22.23599 | 34466 ft | 395 kts | 313° |
| 2026-05-04 23:07 | 39.11834 | 22.20809 | 34597 ft | 396 kts | 313° |
| 2026-05-04 23:07 | 39.13530 | 22.18008 | 34750 ft | 396 kts | 313° |
| 2026-05-04 23:07 | 39.15227 | 22.15208 | 34863 ft | 397 kts | 313° |
| 2026-05-04 23:08 | 39.16927 | 22.12400 | 34996 ft | 397 kts | 313° |
| 2026-05-04 23:08 | 39.18631 | 22.09586 | 35116 ft | 398 kts | 313° |
| 2026-05-04 23:08 | 39.20332 | 22.06770 | 35233 ft | 399 kts | 312° |
| 2026-05-04 23:08 | 39.22039 | 22.03943 | 35341 ft | 399 kts | 312° |
| 2026-05-04 23:09 | 39.23741 | 22.01120 | 35459 ft | 400 kts | 312° |
| 2026-05-04 23:09 | 39.25452 | 21.98280 | 35571 ft | 400 kts | 312° |
| 2026-05-04 23:09 | 39.27157 | 21.95446 | 35695 ft | 400 kts | 312° |
| 2026-05-04 23:09 | 39.28864 | 21.92607 | 35811 ft | 400 kts | 312° |
| 2026-05-04 23:10 | 39.30573 | 21.89763 | 35929 ft | 400 kts | 312° |
| 2026-05-04 23:10 | 39.32303 | 21.86883 | 36083 ft | 400 kts | 312° |
| 2026-05-04 23:10 | 39.35722 | 21.81188 | 36166 ft | 403 kts | 312° |
| 2026-05-04 23:11 | 39.39166 | 21.75438 | 36171 ft | 405 kts | 311° |
| 2026-05-04 23:11 | 39.42609 | 21.69678 | 36171 ft | 405 kts | 311° |
| 2026-05-04 23:12 | 39.46040 | 21.63911 | 36171 ft | 404 kts | 311° |
| 2026-05-04 23:12 | 39.49473 | 21.58139 | 36168 ft | 404 kts | 311° |
| 2026-05-04 23:13 | 39.52899 | 21.52372 | 36171 ft | 404 kts | 311° |
| 2026-05-04 23:13 | 39.56329 | 21.46597 | 36163 ft | 404 kts | 311° |
| 2026-05-04 23:14 | 39.59756 | 21.40821 | 36172 ft | 404 kts | 311° |
| 2026-05-04 23:14 | 39.63171 | 21.35036 | 36170 ft | 405 kts | 311° |
| 2026-05-04 23:15 | 39.66597 | 21.29223 | 36179 ft | 405 kts | 311° |
| 2026-05-04 23:15 | 39.70019 | 21.23409 | 36194 ft | 406 kts | 311° |
| 2026-05-04 23:16 | 39.73442 | 21.17583 | 36196 ft | 406 kts | 311° |
| 2026-05-04 23:16 | 39.76866 | 21.11744 | 36192 ft | 406 kts | 311° |
| 2026-05-04 23:17 | 39.80285 | 21.05907 | 36194 ft | 406 kts | 311° |
| 2026-05-04 23:17 | 39.83708 | 21.00070 | 36186 ft | 406 kts | 311° |
| 2026-05-04 23:18 | 39.87144 | 20.94180 | 36189 ft | 406 kts | 311° |
| 2026-05-04 23:18 | 39.90553 | 20.88319 | 36179 ft | 406 kts | 311° |
| 2026-05-04 23:19 | 39.93970 | 20.82430 | 36186 ft | 408 kts | 310° |
| 2026-05-04 23:19 | 39.97382 | 20.76547 | 36194 ft | 407 kts | 310° |
| 2026-05-04 23:20 | 40.00794 | 20.70666 | 36190 ft | 407 kts | 310° |
| 2026-05-04 23:20 | 40.04199 | 20.64783 | 36180 ft | 407 kts | 310° |
| 2026-05-04 23:21 | 40.07752 | 20.59078 | 36182 ft | 403 kts | 319° |
| 2026-05-04 23:21 | 40.12097 | 20.54501 | 36175 ft | 402 kts | 324° |
| 2026-05-04 23:22 | 40.16504 | 20.49987 | 36187 ft | 402 kts | 323° |
| 2026-05-04 23:22 | 40.20892 | 20.45465 | 36183 ft | 402 kts | 323° |
| 2026-05-04 23:23 | 40.25282 | 20.40937 | 36192 ft | 401 kts | 323° |
| 2026-05-04 23:23 | 40.29668 | 20.36414 | 36177 ft | 402 kts | 323° |
| 2026-05-04 23:24 | 40.34056 | 20.31883 | 36169 ft | 401 kts | 323° |
| 2026-05-04 23:24 | 40.37730 | 20.28077 | 36161 ft | 402 kts | 323° |
| 2026-05-04 23:25 | 40.42116 | 20.23520 | 36163 ft | 403 kts | 323° |
| 2026-05-04 23:25 | 40.46510 | 20.18951 | 36167 ft | 402 kts | 323° |
| 2026-05-04 23:26 | 40.50897 | 20.14389 | 36163 ft | 402 kts | 323° |
| 2026-05-04 23:26 | 40.55281 | 20.09814 | 36155 ft | 402 kts | 323° |
| 2026-05-04 23:27 | 40.59663 | 20.05228 | 36149 ft | 403 kts | 323° |
| 2026-05-04 23:27 | 40.64049 | 20.00634 | 36150 ft | 403 kts | 323° |
| 2026-05-04 23:28 | 40.68435 | 19.96045 | 36152 ft | 403 kts | 323° |
| 2026-05-04 23:28 | 40.72819 | 19.91439 | 36146 ft | 403 kts | 323° |
| 2026-05-04 23:29 | 40.77200 | 19.86832 | 36149 ft | 403 kts | 323° |
| 2026-05-04 23:29 | 40.81579 | 19.82222 | 36143 ft | 403 kts | 323° |
| 2026-05-04 23:30 | 40.85984 | 19.77564 | 36147 ft | 403 kts | 323° |
| 2026-05-04 23:30 | 40.90363 | 19.72937 | 36141 ft | 403 kts | 323° |
| 2026-05-04 23:31 | 40.94748 | 19.68292 | 36152 ft | 404 kts | 323° |
| 2026-05-04 23:31 | 40.99127 | 19.63651 | 36152 ft | 403 kts | 323° |
| 2026-05-04 23:32 | 41.03501 | 19.59003 | 36145 ft | 403 kts | 323° |
| 2026-05-04 23:32 | 41.07870 | 19.54341 | 36139 ft | 404 kts | 323° |
| 2026-05-04 23:33 | 41.12244 | 19.49672 | 36147 ft | 403 kts | 323° |
| 2026-05-04 23:33 | 41.16617 | 19.45007 | 36138 ft | 403 kts | 322° |
| 2026-05-04 23:34 | 41.20989 | 19.40332 | 36138 ft | 404 kts | 322° |
| 2026-05-04 23:34 | 41.25365 | 19.35640 | 36136 ft | 404 kts | 322° |
| 2026-05-04 23:35 | 41.29737 | 19.30938 | 36144 ft | 404 kts | 322° |
| 2026-05-04 23:35 | 41.34109 | 19.26230 | 36138 ft | 405 kts | 322° |
| 2026-05-04 23:36 | 41.38484 | 19.21509 | 36146 ft | 405 kts | 322° |
| 2026-05-04 23:36 | 41.42861 | 19.16778 | 36118 ft | 407 kts | 321° |
| 2026-05-04 23:37 | 41.47302 | 19.11983 | 36121 ft | 408 kts | 321° |
| 2026-05-04 23:37 | 41.51699 | 19.07208 | 36128 ft | 408 kts | 321° |
| 2026-05-04 23:38 | 41.56101 | 19.02419 | 36141 ft | 408 kts | 321° |
| 2026-05-04 23:38 | 41.60507 | 18.97634 | 36141 ft | 408 kts | 321° |
| 2026-05-04 23:39 | 41.64916 | 18.92832 | 36144 ft | 409 kts | 321° |
| 2026-05-04 23:39 | 41.69318 | 18.88017 | 36148 ft | 409 kts | 320° |
| 2026-05-04 23:40 | 41.73723 | 18.83196 | 36147 ft | 409 kts | 320° |
| 2026-05-04 23:40 | 41.78133 | 18.78374 | 36146 ft | 409 kts | 320° |
| 2026-05-04 23:41 | 41.82537 | 18.73538 | 36155 ft | 409 kts | 320° |
| 2026-05-04 23:41 | 41.86937 | 18.68692 | 36156 ft | 410 kts | 320° |
| 2026-05-04 23:42 | 41.91340 | 18.63843 | 36151 ft | 409 kts | 320° |
| 2026-05-04 23:42 | 41.95750 | 18.58983 | 36153 ft | 410 kts | 320° |
| 2026-05-04 23:43 | 42.00151 | 18.54113 | 36147 ft | 410 kts | 320° |
| 2026-05-04 23:43 | 42.04191 | 18.48720 | 36147 ft | 410 kts | 313° |
| 2026-05-04 23:44 | 42.08072 | 18.43095 | 36138 ft | 410 kts | 313° |
| 2026-05-04 23:44 | 42.11975 | 18.37429 | 36139 ft | 410 kts | 313° |
| 2026-05-04 23:45 | 42.15850 | 18.31797 | 36146 ft | 410 kts | 313° |
| 2026-05-04 23:45 | 42.19730 | 18.26154 | 36134 ft | 410 kts | 313° |
| 2026-05-04 23:46 | 42.23603 | 18.20513 | 36142 ft | 410 kts | 313° |
| 2026-05-04 23:46 | 42.27474 | 18.14864 | 36138 ft | 410 kts | 313° |
| 2026-05-04 23:47 | 42.31342 | 18.09197 | 36141 ft | 410 kts | 313° |
| 2026-05-04 23:47 | 42.35205 | 18.03531 | 36138 ft | 410 kts | 313° |
| 2026-05-04 23:48 | 42.39064 | 17.97861 | 36139 ft | 410 kts | 312° |
| 2026-05-04 23:48 | 42.42923 | 17.92185 | 36125 ft | 410 kts | 312° |
| 2026-05-04 23:49 | 42.46783 | 17.86502 | 36133 ft | 410 kts | 312° |
| 2026-05-04 23:49 | 42.50646 | 17.80801 | 36134 ft | 410 kts | 312° |
| 2026-05-04 23:50 | 42.54494 | 17.75093 | 36148 ft | 410 kts | 312° |
| 2026-05-04 23:50 | 42.58343 | 17.69385 | 36136 ft | 410 kts | 312° |
| 2026-05-04 23:51 | 42.62190 | 17.63668 | 36118 ft | 410 kts | 312° |
| 2026-05-04 23:51 | 42.66038 | 17.57936 | 36122 ft | 411 kts | 312° |
| 2026-05-04 23:52 | 42.69907 | 17.52147 | 36133 ft | 411 kts | 312° |
| 2026-05-04 23:52 | 42.73736 | 17.46423 | 36130 ft | 411 kts | 311° |
| 2026-05-04 23:53 | 42.77609 | 17.40617 | 36134 ft | 412 kts | 311° |
| 2026-05-04 23:53 | 42.81458 | 17.34844 | 36124 ft | 412 kts | 311° |
| 2026-05-04 23:54 | 42.85305 | 17.29066 | 36138 ft | 412 kts | 311° |
| 2026-05-04 23:54 | 42.89146 | 17.23280 | 36124 ft | 412 kts | 311° |
| 2026-05-04 23:55 | 42.92983 | 17.17477 | 36123 ft | 412 kts | 311° |
| 2026-05-04 23:56 | 42.98740 | 17.08740 | 36134 ft | 413 kts | 311° |
| 2026-05-04 23:56 | 43.02581 | 17.02914 | 36131 ft | 412 kts | 311° |
| 2026-05-04 23:57 | 43.05769 | 16.98066 | 36137 ft | 412 kts | 311° |
| 2026-05-04 23:57 | 43.09628 | 16.92192 | 36143 ft | 412 kts | 311° |
| 2026-05-04 23:58 | 43.13457 | 16.86343 | 36127 ft | 413 kts | 311° |
| 2026-05-04 23:58 | 43.17294 | 16.80478 | 36131 ft | 413 kts | 311° |
| 2026-05-04 23:59 | 43.21129 | 16.74613 | 36135 ft | 413 kts | 311° |
| 2026-05-04 23:59 | 43.24960 | 16.68737 | 36126 ft | 413 kts | 311° |
| 2026-05-05 00:00 | 43.28786 | 16.62827 | 36124 ft | 415 kts | 310° |
| 2026-05-05 00:00 | 43.32610 | 16.56920 | 36115 ft | 414 kts | 310° |
| 2026-05-05 00:01 | 43.36426 | 16.51016 | 36113 ft | 413 kts | 310° |
| 2026-05-05 00:01 | 43.40248 | 16.45109 | 36120 ft | 414 kts | 310° |
| 2026-05-05 00:02 | 43.44079 | 16.39179 | 36115 ft | 414 kts | 310° |
| 2026-05-05 00:02 | 43.47899 | 16.33240 | 36117 ft | 415 kts | 310° |
| 2026-05-05 00:03 | 43.51644 | 16.27192 | 36110 ft | 414 kts | 308° |
| 2026-05-05 00:03 | 43.55168 | 16.20908 | 36113 ft | 414 kts | 306° |
| 2026-05-05 00:04 | 43.58639 | 16.14561 | 36115 ft | 415 kts | 306° |
| 2026-05-05 00:04 | 43.62142 | 16.08243 | 36118 ft | 415 kts | 307° |
| 2026-05-05 00:05 | 43.65676 | 16.01945 | 36119 ft | 415 kts | 307° |
| 2026-05-05 00:05 | 43.69243 | 15.95598 | 36119 ft | 415 kts | 307° |
| 2026-05-05 00:06 | 43.72774 | 15.89283 | 36107 ft | 415 kts | 306° |
| 2026-05-05 00:06 | 43.76296 | 15.82949 | 36107 ft | 416 kts | 306° |
| 2026-05-05 00:07 | 43.79813 | 15.76597 | 36113 ft | 416 kts | 306° |
| 2026-05-05 00:07 | 43.83335 | 15.70239 | 36114 ft | 416 kts | 306° |
| 2026-05-05 00:08 | 43.86855 | 15.63871 | 36125 ft | 417 kts | 306° |
| 2026-05-05 00:08 | 43.90376 | 15.57487 | 36122 ft | 417 kts | 306° |
| 2026-05-05 00:09 | 43.93894 | 15.51085 | 36124 ft | 417 kts | 306° |
| 2026-05-05 00:09 | 43.97406 | 15.44686 | 36120 ft | 417 kts | 306° |
| 2026-05-05 00:10 | 44.00922 | 15.38279 | 36121 ft | 417 kts | 306° |
| 2026-05-05 00:10 | 44.04430 | 15.31859 | 36121 ft | 417 kts | 306° |
| 2026-05-05 00:11 | 44.07936 | 15.25424 | 36118 ft | 418 kts | 305° |
| 2026-05-05 00:11 | 44.11440 | 15.18974 | 36128 ft | 418 kts | 305° |
| 2026-05-05 00:12 | 44.14951 | 15.12509 | 36116 ft | 418 kts | 305° |
| 2026-05-05 00:12 | 44.18455 | 15.06037 | 36130 ft | 419 kts | 305° |
| 2026-05-05 00:13 | 44.21977 | 14.99518 | 36116 ft | 418 kts | 305° |
| 2026-05-05 00:13 | 44.25480 | 14.93033 | 36123 ft | 419 kts | 305° |
| 2026-05-05 00:14 | 44.28978 | 14.86531 | 36115 ft | 419 kts | 304° |
| 2026-05-05 00:14 | 44.32473 | 14.80006 | 36112 ft | 419 kts | 304° |
| 2026-05-05 00:15 | 44.35965 | 14.73481 | 36107 ft | 419 kts | 304° |
| 2026-05-05 00:15 | 44.39462 | 14.66955 | 36106 ft | 419 kts | 304° |
| 2026-05-05 00:16 | 44.42955 | 14.60417 | 36104 ft | 420 kts | 304° |
| 2026-05-05 00:16 | 44.46441 | 14.53856 | 36096 ft | 420 kts | 304° |
| 2026-05-05 00:17 | 44.49924 | 14.47288 | 36099 ft | 420 kts | 304° |
| 2026-05-05 00:17 | 44.53403 | 14.40712 | 36097 ft | 420 kts | 304° |
| 2026-05-05 00:18 | 44.56882 | 14.34133 | 36087 ft | 420 kts | 304° |
| 2026-05-05 00:18 | 44.60366 | 14.27541 | 36090 ft | 421 kts | 304° |
| 2026-05-05 00:19 | 44.63844 | 14.20926 | 36092 ft | 421 kts | 304° |
| 2026-05-05 00:19 | 44.67321 | 14.14297 | 36097 ft | 421 kts | 304° |
| 2026-05-05 00:20 | 44.70816 | 14.07625 | 36096 ft | 421 kts | 304° |
| 2026-05-05 00:20 | 44.74290 | 14.00989 | 36094 ft | 421 kts | 304° |
| 2026-05-05 00:21 | 44.77759 | 13.94334 | 36096 ft | 422 kts | 303° |
| 2026-05-05 00:21 | 44.81217 | 13.87667 | 36101 ft | 422 kts | 303° |
| 2026-05-05 00:22 | 44.84682 | 13.80981 | 36098 ft | 422 kts | 303° |
| 2026-05-05 00:22 | 44.88140 | 13.74299 | 36096 ft | 422 kts | 303° |
| 2026-05-05 00:23 | 44.91605 | 13.67595 | 36092 ft | 423 kts | 303° |
| 2026-05-05 00:23 | 44.95064 | 13.60887 | 36086 ft | 423 kts | 303° |
| 2026-05-05 00:24 | 44.98519 | 13.54166 | 36081 ft | 423 kts | 303° |
| 2026-05-05 00:24 | 45.01975 | 13.47427 | 36080 ft | 424 kts | 303° |
| 2026-05-05 00:25 | 45.05431 | 13.40677 | 36075 ft | 424 kts | 303° |
| 2026-05-05 00:25 | 45.08893 | 13.33901 | 36054 ft | 425 kts | 303° |
| 2026-05-05 00:26 | 45.12348 | 13.27109 | 36062 ft | 425 kts | 303° |
| 2026-05-05 00:26 | 45.15806 | 13.20307 | 36063 ft | 426 kts | 303° |
| 2026-05-05 00:27 | 45.19262 | 13.13485 | 36056 ft | 426 kts | 303° |
| 2026-05-05 00:27 | 45.22738 | 13.06598 | 36060 ft | 427 kts | 303° |
| 2026-05-05 00:28 | 45.26189 | 12.99743 | 36055 ft | 427 kts | 302° |
| 2026-05-05 00:28 | 45.29441 | 12.92686 | 36062 ft | 426 kts | 299° |
| 2026-05-05 00:29 | 45.32494 | 12.85464 | 36067 ft | 426 kts | 298° |
| 2026-05-05 00:29 | 45.35028 | 12.79451 | 36062 ft | 427 kts | 299° |
| 2026-05-05 00:30 | 45.37734 | 12.73154 | 36071 ft | 427 kts | 299° |
| 2026-05-05 00:30 | 45.40856 | 12.65961 | 36071 ft | 427 kts | 299° |
| 2026-05-05 00:31 | 45.43978 | 12.58756 | 36068 ft | 428 kts | 299° |
| 2026-05-05 00:31 | 45.47087 | 12.51536 | 36071 ft | 428 kts | 299° |
| 2026-05-05 00:32 | 45.50187 | 12.44294 | 36070 ft | 428 kts | 299° |
| 2026-05-05 00:32 | 45.53292 | 12.37039 | 36071 ft | 428 kts | 299° |
| 2026-05-05 00:33 | 45.56393 | 12.29784 | 36074 ft | 428 kts | 299° |
| 2026-05-05 00:33 | 45.59505 | 12.22464 | 36067 ft | 428 kts | 298° |
| 2026-05-05 00:34 | 45.62587 | 12.15192 | 36068 ft | 428 kts | 298° |
| 2026-05-05 00:34 | 45.65668 | 12.07915 | 36087 ft | 428 kts | 298° |
| 2026-05-05 00:35 | 45.68748 | 12.00610 | 36087 ft | 429 kts | 298° |
| 2026-05-05 00:35 | 45.71821 | 11.93299 | 36092 ft | 429 kts | 298° |
| 2026-05-05 00:36 | 45.74893 | 11.85991 | 36085 ft | 429 kts | 298° |
| 2026-05-05 00:36 | 45.77970 | 11.78659 | 36079 ft | 429 kts | 298° |
| 2026-05-05 00:37 | 45.81041 | 11.71322 | 36078 ft | 430 kts | 298° |
| 2026-05-05 00:37 | 45.84105 | 11.63968 | 36076 ft | 430 kts | 298° |
| 2026-05-05 00:38 | 45.87162 | 11.56600 | 36080 ft | 430 kts | 298° |
| 2026-05-05 00:38 | 45.90220 | 11.49218 | 36079 ft | 430 kts | 298° |
| 2026-05-05 00:39 | 45.93272 | 11.41838 | 36075 ft | 430 kts | 298° |
| 2026-05-05 00:39 | 45.96321 | 11.34439 | 36074 ft | 430 kts | 298° |
| 2026-05-05 00:40 | 45.99367 | 11.27035 | 36074 ft | 430 kts | 298° |
| 2026-05-05 00:40 | 46.02429 | 11.19569 | 36082 ft | 431 kts | 297° |
| 2026-05-05 00:41 | 46.05459 | 11.12117 | 36098 ft | 431 kts | 297° |
| 2026-05-05 00:41 | 46.08452 | 11.04638 | 36109 ft | 431 kts | 297° |
| 2026-05-05 00:42 | 46.11439 | 10.97133 | 36121 ft | 432 kts | 297° |
| 2026-05-05 00:42 | 46.14428 | 10.89620 | 36118 ft | 432 kts | 297° |
| 2026-05-05 00:43 | 46.17415 | 10.82084 | 36117 ft | 432 kts | 297° |
| 2026-05-05 00:43 | 46.20403 | 10.74544 | 36104 ft | 433 kts | 297° |
| 2026-05-05 00:44 | 46.23389 | 10.66990 | 36089 ft | 433 kts | 296° |
| 2026-05-05 00:44 | 46.26367 | 10.59434 | 36076 ft | 433 kts | 296° |
| 2026-05-05 00:45 | 46.29348 | 10.51860 | 36080 ft | 434 kts | 296° |
| 2026-05-05 00:45 | 46.32329 | 10.44273 | 36080 ft | 434 kts | 296° |
| 2026-05-05 00:46 | 46.35299 | 10.36662 | 36081 ft | 435 kts | 296° |
| 2026-05-05 00:46 | 46.38276 | 10.29021 | 36089 ft | 435 kts | 296° |
| 2026-05-05 00:47 | 46.41252 | 10.21387 | 36103 ft | 435 kts | 296° |
| 2026-05-05 00:47 | 46.44219 | 10.13738 | 36114 ft | 435 kts | 296° |
| 2026-05-05 00:48 | 46.47191 | 10.06086 | 36122 ft | 436 kts | 298° |
| 2026-05-05 00:48 | 46.51028 | 9.99108 | 36127 ft | 442 kts | 308° |
| 2026-05-05 00:49 | 46.55101 | 9.92421 | 36129 ft | 442 kts | 308° |
| 2026-05-05 00:49 | 46.59169 | 9.85715 | 36129 ft | 442 kts | 307° |
| 2026-05-05 00:50 | 46.63237 | 9.79002 | 36123 ft | 442 kts | 307° |
| 2026-05-05 00:50 | 46.67296 | 9.72278 | 36101 ft | 442 kts | 307° |
| 2026-05-05 00:51 | 46.71348 | 9.65537 | 36073 ft | 442 kts | 307° |
| 2026-05-05 00:51 | 46.75398 | 9.58792 | 36041 ft | 442 kts | 307° |
| 2026-05-05 00:52 | 46.79444 | 9.52026 | 36021 ft | 442 kts | 307° |
| 2026-05-05 00:52 | 46.83474 | 9.45260 | 35997 ft | 442 kts | 307° |
| 2026-05-05 00:53 | 46.87511 | 9.38479 | 35985 ft | 442 kts | 307° |
| 2026-05-05 00:53 | 46.91553 | 9.31695 | 35992 ft | 442 kts | 307° |
| 2026-05-05 00:54 | 46.95592 | 9.24896 | 35992 ft | 442 kts | 307° |
| 2026-05-05 00:54 | 46.99614 | 9.18098 | 35990 ft | 442 kts | 307° |
| 2026-05-05 00:55 | 47.03635 | 9.11283 | 35982 ft | 442 kts | 307° |
| 2026-05-05 00:55 | 47.07681 | 9.04411 | 35980 ft | 442 kts | 306° |
| 2026-05-05 00:56 | 47.11663 | 8.97617 | 35977 ft | 442 kts | 306° |
| 2026-05-05 00:56 | 47.15010 | 8.92172 | 35970 ft | 446 kts | 313° |
| 2026-05-05 00:57 | 47.20149 | 8.86852 | 35970 ft | 454 kts | 325° |
| 2026-05-05 00:57 | 47.25576 | 8.82118 | 35969 ft | 455 kts | 325° |
| 2026-05-05 00:58 | 47.31005 | 8.77349 | 35981 ft | 455 kts | 324° |
| 2026-05-05 00:58 | 47.36443 | 8.72561 | 35978 ft | 455 kts | 324° |
| 2026-05-05 00:59 | 47.41873 | 8.67767 | 35969 ft | 455 kts | 324° |
| 2026-05-05 00:59 | 47.47317 | 8.62955 | 35973 ft | 456 kts | 324° |
| 2026-05-05 01:00 | 47.52761 | 8.58131 | 35980 ft | 456 kts | 324° |
| 2026-05-05 01:00 | 47.58200 | 8.53300 | 35979 ft | 456 kts | 324° |
| 2026-05-05 01:01 | 47.63638 | 8.48453 | 35980 ft | 456 kts | 324° |
| 2026-05-05 01:01 | 47.68773 | 8.43051 | 35974 ft | 448 kts | 311° |
| 2026-05-05 01:02 | 47.72680 | 8.35970 | 35965 ft | 442 kts | 301° |
| 2026-05-05 01:02 | 47.75674 | 8.29740 | 35972 ft | 442 kts | 301° |
| 2026-05-05 01:03 | 47.79245 | 8.22313 | 35968 ft | 441 kts | 301° |
| 2026-05-05 01:03 | 47.82804 | 8.14886 | 35976 ft | 441 kts | 301° |
| 2026-05-05 01:04 | 47.86362 | 8.07436 | 35980 ft | 442 kts | 301° |
| 2026-05-05 01:04 | 47.91692 | 7.96229 | 35973 ft | 442 kts | 300° |